createdAt,value
2017-01-05T00:17:46.633Z,0
2017-01-05T01:19:42.426Z,0
2017-01-05T03:19:41.498Z,0
2017-01-05T03:21:03.492Z,0
2017-01-05T03:22:50.423Z,0
2017-01-05T03:23:43.770Z,0
2017-01-05T03:24:35.836Z,0
2017-01-05T03:25:29.608Z,0
2017-01-05T03:26:20.822Z,0
2017-01-05T04:20:20.277Z,0
2017-01-05T04:21:13.948Z,0
2017-01-05T04:22:07.373Z,0
2017-01-05T04:23:00.730Z,0
2017-01-05T04:23:54.519Z,0
2017-01-05T04:26:13.276Z,0
2017-01-05T04:28:10.292Z,0
2017-01-05T05:20:15.413Z,0
2017-01-05T05:21:08.687Z,0
2017-01-05T05:22:33.607Z,0
2017-01-05T05:23:58.411Z,0
2017-01-05T05:24:50.348Z,0
2017-01-05T06:20:10.151Z,0
2017-01-05T06:21:03.673Z,0
2017-01-05T06:23:42.316Z,0
2017-01-05T06:24:36.018Z,0
2017-01-05T06:25:29.328Z,0
2017-01-05T06:26:22.782Z,0
2017-01-05T06:27:16.432Z,0
2017-01-05T07:20:32.808Z,164
2017-01-05T07:21:26.528Z,176
2017-01-05T07:22:19.819Z,184
2017-01-05T07:23:13.615Z,200
2017-01-05T07:24:07.184Z,216
2017-01-05T07:25:00.546Z,228
2017-01-05T07:25:54.091Z,240
2017-01-05T07:26:47.585Z,260
2017-01-05T07:27:41.093Z,272
2017-01-05T07:28:34.260Z,284
2017-01-05T07:29:27.964Z,304
2017-01-05T07:30:21.593Z,316
2017-01-05T07:31:15.303Z,336
2017-01-05T07:32:08.636Z,348
2017-01-05T07:33:02.244Z,368
2017-01-05T07:33:55.420Z,384
2017-01-05T07:34:49.055Z,396
2017-01-05T07:35:42.591Z,416
2017-01-05T07:36:35.992Z,432
2017-01-05T07:37:29.217Z,452
2017-01-05T07:38:23.039Z,472
2017-01-05T08:20:01.029Z,1732
2017-01-05T08:20:54.394Z,1640
2017-01-05T08:21:48.147Z,1928
2017-01-05T08:24:37.958Z,1940
2017-01-05T08:25:31.569Z,2128
2017-01-05T08:26:56.207Z,1528
2017-01-05T11:18:46.773Z,13484
2017-01-05T11:19:40.529Z,10260
2017-01-05T11:20:34.052Z,9260
2017-01-05T11:21:27.487Z,7300
2017-01-05T11:22:21.438Z,7892
2017-01-05T11:23:14.623Z,7556
2017-01-05T11:24:08.381Z,9084
2017-01-05T11:25:33.554Z,11192
2017-01-05T11:26:27.071Z,12312
2017-01-05T11:27:20.687Z,9896
2017-01-05T11:28:14.039Z,8092
2017-01-05T11:29:07.549Z,12632
2017-01-05T11:30:01.019Z,12212
2017-01-05T11:30:54.610Z,7132
2017-01-05T11:31:48.474Z,6708
2017-01-05T11:32:41.656Z,6728
2017-01-05T11:33:35.150Z,6328
2017-01-05T11:35:00.546Z,13852
2017-01-05T11:36:57.480Z,12704
2017-01-05T11:37:51.253Z,13600
2017-01-05T11:38:45.033Z,13892
2017-01-05T11:39:38.642Z,13076
2017-01-05T11:40:51.769Z,7604
2017-01-05T11:41:45.184Z,9964
2017-01-05T11:42:38.754Z,11628
2017-01-05T11:44:10.905Z,13460
2017-01-05T11:45:16.503Z,14292
2017-01-05T12:19:46.881Z,5436
2017-01-05T12:20:40.265Z,6012
2017-01-05T12:21:34.328Z,7172
2017-01-05T12:23:21.064Z,7156
2017-01-05T12:24:14.450Z,5860
2017-01-05T12:25:07.547Z,5132
2017-01-05T12:26:01.399Z,5180
2017-01-05T12:26:54.587Z,5404
2017-01-05T12:27:48.098Z,5592
2017-01-05T12:28:41.924Z,6068
2017-01-05T12:29:35.247Z,6428
2017-01-05T12:30:28.487Z,6392
2017-01-05T12:31:22.195Z,6096
2017-01-05T12:32:15.603Z,6660
2017-01-05T12:34:02.585Z,7564
2017-01-05T12:34:56.379Z,8356
2017-01-05T12:36:10.342Z,6264
2017-01-05T12:37:03.536Z,6296
2017-01-05T12:37:57.306Z,6880
2017-01-05T12:38:50.455Z,7060
2017-01-05T12:39:44.018Z,5840
2017-01-05T12:40:37.557Z,5628
2017-01-05T12:41:30.935Z,5924
2017-01-05T12:42:26.723Z,5392
2017-01-05T12:44:16.389Z,5988
2017-01-05T12:45:59.204Z,5600
2017-01-05T12:46:52.390Z,5240
2017-01-05T12:47:45.942Z,4988
2017-01-05T12:48:39.576Z,4900
2017-01-05T12:49:33.226Z,5192
2017-01-05T13:19:42.543Z,4704
2017-01-05T13:20:36.272Z,4428
2017-01-05T13:21:29.609Z,4352
2017-01-05T13:22:23.011Z,4288
2017-01-05T13:23:16.627Z,4136
2017-01-05T13:24:10.037Z,4036
2017-01-05T13:25:35.192Z,4320
2017-01-05T13:26:29.134Z,4400
2017-01-05T13:28:15.671Z,4872
2017-01-05T13:29:09.498Z,4844
2017-01-05T13:30:02.951Z,4524
2017-01-05T13:30:56.204Z,3892
2017-01-05T13:31:49.202Z,3464
2017-01-05T13:32:42.570Z,3524
2017-01-05T13:33:36.385Z,3692
2017-01-05T13:34:29.611Z,3772
2017-01-05T13:35:22.839Z,3724
2017-01-05T13:36:16.952Z,6732
2017-01-05T13:37:10.010Z,3652
2017-01-05T13:38:03.998Z,3548
2017-01-05T13:38:57.284Z,3232
2017-01-05T13:39:50.909Z,2876
2017-01-05T13:40:44.394Z,2552
2017-01-05T13:41:37.519Z,2560
2017-01-05T13:42:30.995Z,6992
2017-01-05T13:43:24.622Z,7108
2017-01-05T13:44:49.857Z,7220
2017-01-05T13:45:43.498Z,7740
2017-01-05T13:46:36.727Z,8116
2017-01-05T13:47:31.006Z,7920
2017-01-05T13:48:24.037Z,9000
2017-01-05T14:18:12.647Z,1620
2017-01-05T14:19:05.887Z,1516
2017-01-05T14:20:52.805Z,1472
2017-01-05T14:21:46.289Z,1460
2017-01-05T14:22:40.134Z,1488
2017-01-05T14:23:33.297Z,1544
2017-01-05T14:24:26.827Z,1588
2017-01-05T14:25:20.214Z,1628
2017-01-05T14:27:05.638Z,1640
2017-01-05T14:27:59.169Z,1556
2017-01-05T14:28:53.045Z,1480
2017-01-05T14:29:46.146Z,1448
2017-01-05T14:31:11.554Z,1368
2017-01-05T14:32:05.033Z,1352
2017-01-05T14:33:50.389Z,1304
2017-01-05T14:35:15.316Z,1272
2017-01-05T14:36:09.073Z,1256
2017-01-05T14:37:33.290Z,1232
2017-01-05T14:38:26.732Z,1216
2017-01-05T14:39:52.094Z,1200
2017-01-05T14:40:45.191Z,1188
2017-01-05T14:41:38.750Z,1176
2017-01-05T14:42:32.090Z,1164
2017-01-05T14:43:25.923Z,1152
2017-01-05T14:44:19.153Z,1140
2017-01-05T14:45:12.766Z,1132
2017-01-05T14:46:05.810Z,1120
2017-01-05T14:46:59.728Z,1112
2017-01-05T14:47:53.180Z,1100
2017-01-05T14:48:46.757Z,1092
2017-01-05T15:18:22.791Z,544
2017-01-05T15:19:16.285Z,508
2017-01-05T15:20:09.702Z,488
2017-01-05T15:21:03.332Z,472
2017-01-05T15:21:56.812Z,452
2017-01-05T15:22:50.016Z,436
2017-01-05T15:23:42.695Z,420
2017-01-05T15:24:56.646Z,396
2017-01-05T15:25:50.136Z,384
2017-01-05T15:26:43.545Z,364
2017-01-05T15:27:36.952Z,352
2017-01-05T15:28:30.646Z,340
2017-01-05T15:29:23.780Z,328
2017-01-05T15:31:11.177Z,296
2017-01-05T15:32:04.603Z,276
2017-01-05T15:32:58.163Z,260
2017-01-05T15:33:51.513Z,248
2017-01-05T15:34:45.197Z,232
2017-01-05T15:35:38.649Z,216
2017-01-05T15:36:32.163Z,204
2017-01-05T15:37:25.676Z,192
2017-01-05T15:38:18.850Z,180
2017-01-05T15:39:12.664Z,168
2017-01-05T15:40:06.190Z,156
2017-01-05T15:40:59.470Z,148
2017-01-05T15:41:52.877Z,140
2017-01-05T15:42:46.446Z,128
2017-01-05T15:44:11.775Z,112
2017-01-05T15:45:05.360Z,104
2017-01-05T16:18:50.274Z,0
2017-01-05T16:20:15.981Z,0
2017-01-05T16:22:29.477Z,0
2017-01-05T16:23:43.962Z,0
2017-01-05T16:24:37.029Z,0
2017-01-05T16:25:30.985Z,0
2017-01-05T16:26:24.472Z,0
2017-01-05T16:27:17.715Z,0
2017-01-05T16:28:11.423Z,0
2017-01-05T16:29:05.032Z,0
2017-01-05T16:29:56.592Z,0
2017-01-05T17:18:36.616Z,0
2017-01-05T17:20:23.463Z,0
2017-01-05T17:21:16.686Z,0
2017-01-05T17:22:09.907Z,0
2017-01-05T17:23:03.104Z,0
2017-01-05T17:24:28.277Z,0
2017-01-05T17:26:15.681Z,0
2017-01-05T17:27:08.383Z,0
2017-01-05T17:28:02.150Z,0
2017-01-05T17:28:55.660Z,0
2017-01-05T17:29:48.889Z,0
2017-01-05T17:30:42.659Z,0
2017-01-05T17:31:36.005Z,0
2017-01-05T17:33:21.254Z,0
2017-01-05T17:34:14.639Z,0
2017-01-05T17:35:08.104Z,0
2017-01-05T17:36:01.774Z,0
2017-01-05T17:36:55.497Z,0
2017-01-05T17:37:48.871Z,0
2017-01-05T17:38:40.900Z,0
2017-01-05T17:40:58.394Z,0
2017-01-05T17:41:52.308Z,0
2017-01-05T17:42:45.320Z,0
2017-01-05T17:43:39.118Z,0
2017-01-05T17:44:31.143Z,0
2017-01-05T17:45:24.322Z,0
2017-01-05T18:21:12.999Z,0
2017-01-05T18:23:09.005Z,0
2017-01-05T18:24:02.266Z,0
2017-01-05T18:24:54.337Z,0
2017-01-05T18:25:48.074Z,0
2017-01-05T18:26:41.200Z,0
2017-01-05T18:27:35.072Z,0
2017-01-05T18:28:25.874Z,0
2017-01-05T19:19:00.891Z,0
2017-01-05T19:20:47.605Z,0
2017-01-05T19:21:41.138Z,0
2017-01-05T19:22:34.617Z,0
2017-01-05T19:23:27.806Z,0
2017-01-05T19:24:21.682Z,0
2017-01-05T19:25:14.819Z,0
2017-01-05T19:26:08.335Z,0
2017-01-05T19:27:01.787Z,0
2017-01-05T19:27:55.606Z,0
2017-01-05T19:28:48.720Z,0
2017-01-05T19:29:42.363Z,0
2017-01-05T19:32:32.120Z,0
2017-01-05T19:33:25.698Z,0
2017-01-05T19:34:19.349Z,0
2017-01-05T19:35:12.414Z,0
2017-01-05T19:36:06.500Z,0
2017-01-05T19:36:59.652Z,0
2017-01-05T19:37:53.477Z,0
2017-01-05T19:38:47.004Z,0
2017-01-05T19:39:40.062Z,0
2017-01-05T19:41:04.018Z,0
2017-01-05T19:42:28.869Z,0
2017-01-05T19:43:22.351Z,0
2017-01-05T19:44:46.143Z,0
2017-01-05T19:45:37.347Z,0
2017-01-05T20:17:53.000Z,0
2017-01-05T20:18:46.484Z,0
2017-01-05T20:19:39.940Z,0
2017-01-05T20:20:33.814Z,0
2017-01-05T20:21:27.272Z,0
2017-01-05T20:22:20.416Z,0
2017-01-05T20:23:14.255Z,0
2017-01-05T20:24:07.782Z,0
2017-01-05T20:25:01.235Z,0
2017-01-05T20:25:54.718Z,0
2017-01-05T20:26:48.336Z,0
2017-01-05T20:27:41.746Z,0
2017-01-05T20:28:34.902Z,0
2017-01-05T20:29:28.423Z,0
2017-01-05T20:30:22.174Z,0
2017-01-05T20:31:15.453Z,0
2017-01-05T20:32:09.415Z,0
2017-01-05T20:33:02.466Z,0
2017-01-05T20:33:56.063Z,0
2017-01-05T20:34:49.499Z,0
2017-01-05T20:36:34.851Z,0
2017-01-05T20:37:28.746Z,0
2017-01-05T20:38:21.117Z,0
2017-01-05T21:17:38.546Z,0
2017-01-05T21:19:25.167Z,0
2017-01-05T21:20:18.712Z,0
2017-01-05T21:22:37.493Z,0
2017-01-05T21:23:30.692Z,0
2017-01-05T21:24:24.312Z,0
2017-01-05T21:25:18.042Z,0
2017-01-05T21:27:05.456Z,0
2017-01-05T21:27:58.462Z,0
2017-01-05T21:29:23.551Z,0
2017-01-05T21:30:17.145Z,0
2017-01-05T21:31:10.449Z,0
2017-01-05T21:32:04.456Z,0
2017-01-05T21:32:57.588Z,0
2017-01-05T21:33:51.066Z,0
2017-01-05T21:34:44.859Z,0
2017-01-05T21:36:09.627Z,0
2017-01-05T21:37:03.610Z,0
2017-01-05T21:37:57.020Z,0
2017-01-05T21:38:50.482Z,0
2017-01-05T21:39:43.793Z,0
2017-01-05T21:40:37.420Z,0
2017-01-05T21:41:30.677Z,0
2017-01-05T21:42:24.335Z,0
2017-01-05T21:43:49.546Z,0
2017-01-05T21:44:43.150Z,0
2017-01-05T21:45:36.672Z,0
2017-01-05T22:17:46.136Z,0
2017-01-05T22:19:00.152Z,0
2017-01-05T22:20:25.262Z,0
2017-01-05T22:21:18.580Z,0
2017-01-05T22:22:12.217Z,0
2017-01-05T22:23:06.052Z,0
2017-01-05T22:23:59.180Z,0
2017-01-05T22:24:52.671Z,0
2017-01-05T22:25:46.580Z,0
2017-01-05T22:27:11.729Z,0
2017-01-05T22:28:05.179Z,0
2017-01-05T22:28:59.047Z,0
2017-01-05T22:29:52.115Z,0
2017-01-05T22:30:45.880Z,0
2017-01-05T22:31:39.133Z,0
2017-01-05T22:32:32.607Z,0
2017-01-05T22:33:26.191Z,0
2017-01-05T22:34:51.689Z,0
2017-01-05T22:35:44.245Z,0
2017-01-05T23:18:31.079Z,0
2017-01-05T23:19:30.904Z,0
2017-01-05T23:20:24.252Z,0
2017-01-05T23:21:17.673Z,0
